Amsterdam, Ohio
Current Conditions -  °F | °C
As of 5:53 PM on Monday 20 Oct 2014 (Local Time) from KHLG Reporting Station
Scattered Clouds Scattered Clouds  
Wind Chill: 13°   Ceiling: Unl
Heat Index: 13°   Visibility: 10mi
Dew Point:   Wind: 9mph
Humidity: 62%   Direction: 230°SW
Pressure: 29.89"   Gusts: NA
Location:  40.47°N, 80.92°W
Report Text: KHLG 202153Z 23008KT 10SM SCT110 13/06 A2989 RMK AO2 SLP126 T01280056
Loading
Personal Weather Stations






























Interactive Weather Map
Tropical Storm Tracking
New forecast layout! Learn more

10-Day Weather Forecast

Advertisements
Track Severe Weather on mobile